Capt. W.d. Nunley — WDF6047 — position and weather

sailwx.info

Track history (hours):
 
Tides and Currents Weather Stations Pressure Air Temp Water Temp Dewpoint Dewpoint Depression Visibility Wind Speed Wind Dir Waves Ship Positions

Capt. W.d. Nunley

Owner: Florida Marine Transporters, LLC, Mandeville, LA. More information available from US FCC via Universal Licensing System and Coast Guard Vessel Documentation Center.

Last reported at 2017-Dec-08 16:29 UTC. Time now 2017-Dec-16 13:02 UTC.
Position N 32°37' W 091°09'.

Length 37 m; draft 2.9 m.

Type: Ship (hazmat cat A). MMSI: 367470060.

Date/timePositionNaut miles runAvg speedWind from/ knotsBaromVisibWave heightAir tempDewpointWater temp
2017-Dec-08 16:29N 32°37' W 091°09'2 4.6
2017-Dec-08 16:00N 32°35' W 091°08'2 4.7
2017-Dec-08 15:30N 32°33' W 091°06'2 4.6
2017-Dec-08 14:59N 32°31' W 091°06'2 5.2
2017-Dec-08 14:30N 32°29' W 091°07'3 5.0
2017-Dec-08 14:00N 32°27' W 091°05'2 4.9
2017-Dec-08 13:30N 32°26' W 091°02'2 4.5
2017-Dec-08 13:00N 32°25' W 090°60'2 4.6
2017-Dec-08 12:30N 32°23' W 091°00'2 4.1
2017-Dec-08 12:00N 32°21' W 090°59'3 5.0
2017-Dec-08 11:30N 32°21' W 090°56'2 3.9
2017-Dec-08 11:00N 32°19' W 090°54'3 5.1
2017-Dec-08 10:30N 32°17' W 090°56'2 4.4
2017-Dec-08 10:00N 32°16' W 090°58'2 3.5
2017-Dec-08 09:30N 32°14' W 090°59'2 3.5
2017-Dec-08 09:00N 32°13' W 090°59'1 1.4
2017-Dec-08 08:30N 32°12' W 090°59'2 3.5
2017-Dec-08 08:00N 32°10' W 090°60'2 4.1
2017-Dec-08 07:30N 32°08' W 091°00'2 3.9
2017-Dec-08 07:00N 32°07' W 091°02'3 4.4
2017-Dec-08 06:21N 32°08' W 091°05'1 4.0
2017-Dec-08 06:00N 32°07' W 091°07'5 4.2
2017-Dec-08 04:42N 32°02' W 091°04'1 5.1
2017-Dec-08 04:30N 32°01' W 091°04'  
2017-Dec-04 08:08N 29°56' W 093°04'1 5.0
2017-Dec-04 07:59N 29°56' W 093°05'0 0.2
2017-Dec-04 06:55N 29°56' W 093°05'2 4.2
2017-Dec-04 06:30N 29°56' W 093°07'2 4.9
2017-Dec-04 06:00N 29°56' W 093°10'3 5.2
2017-Dec-04 05:30N 29°58' W 093°12'3 5.0
2017-Dec-04 05:00N 30°00' W 093°14'2 4.3
2017-Dec-04 04:30N 30°02' W 093°15'2 4.3
2017-Dec-04 04:00N 30°04' W 093°16'2 3.1
2017-Dec-04 03:30N 30°05' W 093°17'1 1.0
2017-Dec-04 03:00N 30°05' W 093°18'0 0.9
2017-Dec-04 02:30N 30°06' W 093°18'1 1.0
2017-Dec-04 02:00N 30°06' W 093°18'0 0.1
2017-Dec-04 01:30N 30°06' W 093°18'0 0.0
2017-Dec-04 01:00N 30°06' W 093°18'0 0.9
2017-Dec-04 00:30N 30°06' W 093°19'0 0.3
2017-Dec-03 23:59N 30°06' W 093°19'1 2.2
2017-Dec-03 23:27N 30°05' W 093°20'2 3.2
2017-Dec-03 22:56N 30°04' W 093°21'2 3.8
2017-Dec-03 22:30N 30°04' W 093°23'2 4.5
2017-Dec-03 22:00N 30°04' W 093°26'2 4.5
2017-Dec-03 21:30N 30°04' W 093°28'2 4.6
2017-Dec-03 21:00N 30°04' W 093°31'2 4.7
2017-Dec-03 20:30N 30°04' W 093°33'2 4.8
2017-Dec-03 20:00N 30°04' W 093°36'2 4.6
2017-Dec-03 19:30N 30°04' W 093°39'2 4.7
2017-Dec-03 19:00N 30°04' W 093°42'2 3.6
2017-Dec-03 18:29N 30°03' W 093°44'2 4.1
2017-Dec-03 17:59N 30°01' W 093°45'10 4.4
2017-Dec-03 15:41N 29°60' W 093°56'12 0.5
2017-Dec-02 15:26N 30°03' W 093°44'2 5.6
2017-Dec-02 14:59N 30°04' W 093°41'3 6.0
2017-Dec-02 14:30N 30°04' W 093°37'3 5.5
2017-Dec-02 14:00N 30°04' W 093°34'3 5.2
2017-Dec-02 13:30N 30°04' W 093°31'0 1.0
2017-Dec-02 13:00N 30°04' W 093°31'0 0.0
2017-Dec-02 12:30N 30°04' W 093°31'0 0.0
2017-Dec-02 12:00N 30°04' W 093°31'0 0.0
2017-Dec-02 11:30N 30°04' W 093°31'0 0.0
2017-Dec-02 11:00N 30°04' W 093°31'0 0.0
2017-Dec-02 08:56N 30°04' W 093°31'0 0.0
2017-Dec-02 08:30N 30°04' W 093°31'1 2.8
2017-Dec-02 08:00N 30°04' W 093°29'2 3.8
2017-Dec-02 07:30N 30°04' W 093°27'3 5.6
2017-Dec-02 07:00N 30°04' W 093°24'2 4.6
2017-Dec-02 06:30N 30°04' W 093°21'2 3.9
2017-Dec-02 06:00N 30°05' W 093°20'2 3.7
2017-Dec-02 05:30N 30°05' W 093°18'1 1.5
2017-Dec-02 05:00N 30°05' W 093°17'0 0.2
2017-Dec-02 04:30N 30°05' W 093°17'0 0.1
2017-Dec-02 04:00N 30°05' W 093°17'0 0.6
2017-Dec-02 03:30N 30°05' W 093°17'2 3.2
2017-Dec-02 03:00N 30°03' W 093°16'1 2.8
2017-Dec-02 02:30N 30°02' W 093°15'2 4.1
2017-Dec-02 02:00N 30°00' W 093°14'1 1.2
2017-Dec-02 01:30N 29°60' W 093°13'2 4.3
2017-Dec-02 01:00N 29°58' W 093°11'2 4.7
2017-Dec-02 00:30N 29°56' W 093°10'2 4.5
2017-Dec-02 00:00N 29°56' W 093°07'40 4.5
2017-Dec-01 15:11N 29°51' W 092°22'1 4.3
2017-Dec-01 14:54N 29°51' W 092°20'2 4.5
2017-Dec-01 14:30N 29°50' W 092°18'1 2.8
2017-Dec-01 14:00N 29°49' W 092°17'2 4.4
2017-Dec-01 13:30N 29°48' W 092°15'2 4.4
2017-Dec-01 13:00N 29°47' W 092°13'1 1.9
2017-Dec-01 12:30N 29°47' W 092°12'0 0.4
2017-Dec-01 12:00N 29°47' W 092°11'1 1.3
2017-Dec-01 11:30N 29°47' W 092°11'0 0.8
2017-Dec-01 11:00N 29°47' W 092°10'2 3.5
2017-Dec-01 10:30N 29°47' W 092°08'2 4.5
2017-Dec-01 10:00N 29°48' W 092°06'2 4.9
2017-Dec-01 09:30N 29°49' W 092°03'3 5.2
2017-Dec-01 09:00N 29°50' W 092°00'  
Track history (hours):
 
Tides and Currents Weather Stations Pressure Air Temp Water Temp Dewpoint Dewpoint Depression Visibility Wind Speed Wind Dir Waves Ship Positions

Capt. W.d. Nunley

Owner: Florida Marine Transporters, LLC, Mandeville, LA. More information available from US FCC via Universal Licensing System and Coast Guard Vessel Documentation Center.

Last reported at 2017-Dec-08 16:29 UTC. Time now 2017-Dec-16 13:02 UTC.
Position N 32°37' W 091°09'.

Length 37 m; draft 2.9 m.

Type: Ship (hazmat cat A). MMSI: 367470060.

Date/timePositionNaut miles runAvg speedWind from/ knotsBaromVisibWave heightAir tempDewpointWater temp
2017-Dec-08 16:29N 32°37' W 091°09'2 4.6
2017-Dec-08 16:00N 32°35' W 091°08'2 4.7
2017-Dec-08 15:30N 32°33' W 091°06'2 4.6
2017-Dec-08 14:59N 32°31' W 091°06'2 5.2
2017-Dec-08 14:30N 32°29' W 091°07'3 5.0
2017-Dec-08 14:00N 32°27' W 091°05'2 4.9
2017-Dec-08 13:30N 32°26' W 091°02'2 4.5
2017-Dec-08 13:00N 32°25' W 090°60'2 4.6
2017-Dec-08 12:30N 32°23' W 091°00'2 4.1
2017-Dec-08 12:00N 32°21' W 090°59'3 5.0
2017-Dec-08 11:30N 32°21' W 090°56'2 3.9
2017-Dec-08 11:00N 32°19' W 090°54'3 5.1
2017-Dec-08 10:30N 32°17' W 090°56'2 4.4
2017-Dec-08 10:00N 32°16' W 090°58'2 3.5
2017-Dec-08 09:30N 32°14' W 090°59'2 3.5
2017-Dec-08 09:00N 32°13' W 090°59'1 1.4
2017-Dec-08 08:30N 32°12' W 090°59'2 3.5
2017-Dec-08 08:00N 32°10' W 090°60'2 4.1
2017-Dec-08 07:30N 32°08' W 091°00'2 3.9
2017-Dec-08 07:00N 32°07' W 091°02'3 4.4
2017-Dec-08 06:21N 32°08' W 091°05'1 4.0
2017-Dec-08 06:00N 32°07' W 091°07'5 4.2
2017-Dec-08 04:42N 32°02' W 091°04'1 5.1
2017-Dec-08 04:30N 32°01' W 091°04'  
2017-Dec-04 08:08N 29°56' W 093°04'1 5.0
2017-Dec-04 07:59N 29°56' W 093°05'0 0.2
2017-Dec-04 06:55N 29°56' W 093°05'2 4.2
2017-Dec-04 06:30N 29°56' W 093°07'2 4.9
2017-Dec-04 06:00N 29°56' W 093°10'3 5.2
2017-Dec-04 05:30N 29°58' W 093°12'3 5.0
2017-Dec-04 05:00N 30°00' W 093°14'2 4.3
2017-Dec-04 04:30N 30°02' W 093°15'2 4.3
2017-Dec-04 04:00N 30°04' W 093°16'2 3.1
2017-Dec-04 03:30N 30°05' W 093°17'1 1.0
2017-Dec-04 03:00N 30°05' W 093°18'0 0.9
2017-Dec-04 02:30N 30°06' W 093°18'1 1.0
2017-Dec-04 02:00N 30°06' W 093°18'0 0.1
2017-Dec-04 01:30N 30°06' W 093°18'0 0.0
2017-Dec-04 01:00N 30°06' W 093°18'0 0.9
2017-Dec-04 00:30N 30°06' W 093°19'0 0.3
2017-Dec-03 23:59N 30°06' W 093°19'1 2.2
2017-Dec-03 23:27N 30°05' W 093°20'2 3.2
2017-Dec-03 22:56N 30°04' W 093°21'2 3.8
2017-Dec-03 22:30N 30°04' W 093°23'2 4.5
2017-Dec-03 22:00N 30°04' W 093°26'2 4.5
2017-Dec-03 21:30N 30°04' W 093°28'2 4.6
2017-Dec-03 21:00N 30°04' W 093°31'2 4.7
2017-Dec-03 20:30N 30°04' W 093°33'2 4.8
2017-Dec-03 20:00N 30°04' W 093°36'2 4.6
2017-Dec-03 19:30N 30°04' W 093°39'2 4.7
2017-Dec-03 19:00N 30°04' W 093°42'2 3.6
2017-Dec-03 18:29N 30°03' W 093°44'2 4.1
2017-Dec-03 17:59N 30°01' W 093°45'10 4.4
2017-Dec-03 15:41N 29°60' W 093°56'12 0.5
2017-Dec-02 15:26N 30°03' W 093°44'2 5.6
2017-Dec-02 14:59N 30°04' W 093°41'3 6.0
2017-Dec-02 14:30N 30°04' W 093°37'3 5.5
2017-Dec-02 14:00N 30°04' W 093°34'3 5.2
2017-Dec-02 13:30N 30°04' W 093°31'0 1.0
2017-Dec-02 13:00N 30°04' W 093°31'0 0.0
2017-Dec-02 12:30N 30°04' W 093°31'0 0.0
2017-Dec-02 12:00N 30°04' W 093°31'0 0.0
2017-Dec-02 11:30N 30°04' W 093°31'0 0.0
2017-Dec-02 11:00N 30°04' W 093°31'0 0.0
2017-Dec-02 08:56N 30°04' W 093°31'0 0.0
2017-Dec-02 08:30N 30°04' W 093°31'1 2.8
2017-Dec-02 08:00N 30°04' W 093°29'2 3.8
2017-Dec-02 07:30N 30°04' W 093°27'3 5.6
2017-Dec-02 07:00N 30°04' W 093°24'2 4.6
2017-Dec-02 06:30N 30°04' W 093°21'2 3.9
2017-Dec-02 06:00N 30°05' W 093°20'2 3.7
2017-Dec-02 05:30N 30°05' W 093°18'1 1.5
2017-Dec-02 05:00N 30°05' W 093°17'0 0.2
2017-Dec-02 04:30N 30°05' W 093°17'0 0.1
2017-Dec-02 04:00N 30°05' W 093°17'0 0.6
2017-Dec-02 03:30N 30°05' W 093°17'2 3.2
2017-Dec-02 03:00N 30°03' W 093°16'1 2.8
2017-Dec-02 02:30N 30°02' W 093°15'2 4.1
2017-Dec-02 02:00N 30°00' W 093°14'1 1.2
2017-Dec-02 01:30N 29°60' W 093°13'2 4.3
2017-Dec-02 01:00N 29°58' W 093°11'2 4.7
2017-Dec-02 00:30N 29°56' W 093°10'2 4.5
2017-Dec-02 00:00N 29°56' W 093°07'40 4.5
2017-Dec-01 15:11N 29°51' W 092°22'1 4.3
2017-Dec-01 14:54N 29°51' W 092°20'2 4.5
2017-Dec-01 14:30N 29°50' W 092°18'1 2.8
2017-Dec-01 14:00N 29°49' W 092°17'2 4.4
2017-Dec-01 13:30N 29°48' W 092°15'2 4.4
2017-Dec-01 13:00N 29°47' W 092°13'1 1.9
2017-Dec-01 12:30N 29°47' W 092°12'0 0.4
2017-Dec-01 12:00N 29°47' W 092°11'1 1.3
2017-Dec-01 11:30N 29°47' W 092°11'0 0.8
2017-Dec-01 11:00N 29°47' W 092°10'2 3.5
2017-Dec-01 10:30N 29°47' W 092°08'2 4.5
2017-Dec-01 10:00N 29°48' W 092°06'2 4.9
2017-Dec-01 09:30N 29°49' W 092°03'3 5.2
2017-Dec-01 09:00N 29°50' W 092°00'  

Dump ship's entire track history